Ahtanum, Washington
Current Conditions -  °F | °C
As of 3:53 AM on Saturday 22 Nov 2014 (Local Time) from KYKM Reporting Station
Moderate Fog Moderate Fog  
Wind Chill: 33°   Ceiling: 100
Heat Index: 33°   Visibility: 0.25mi
Dew Point: 31°   Wind: 0mph
Humidity: 92%   Direction: NA
Pressure: 29.6"   Gusts: NA
Location:  46.5979°N, 120.534°W
Report Text: KYKM 221153Z AUTO 00000KT 1/4SM R27/1200FT FG VV001 01/M01 A2960 RMK AO2 SLP034 70020 I1000 I6000 T00061006 10011 20000 51019
Loading
Personal Weather Stations






























Interactive Weather Map New forecast layout! Learn more

10-Day Weather Forecast

Advertisements
Track Severe Weather on mobile